createdAt,value
2019-02-20T00:00:47.012Z,6.02
2019-02-20T00:01:47.036Z,5.93
2019-02-20T00:02:46.988Z,5.91
2019-02-20T00:03:46.974Z,5.91
2019-02-20T00:04:46.961Z,6.01
2019-02-20T00:05:46.951Z,5.93
2019-02-20T00:06:47.002Z,5.93
2019-02-20T00:07:46.937Z,6.05
2019-02-20T00:08:46.926Z,5.90
2019-02-20T00:09:46.912Z,5.97
2019-02-20T00:10:46.899Z,5.90
2019-02-20T00:11:46.938Z,5.89
2019-02-20T00:12:47.021Z,5.93
2019-02-20T00:13:46.873Z,5.93
2019-02-20T00:14:46.854Z,5.87
2019-02-20T00:15:46.838Z,5.87
2019-02-20T00:16:47.074Z,5.93
2019-02-20T00:17:46.882Z,5.86
2019-02-20T00:18:46.860Z,5.91
2019-02-20T00:19:46.883Z,5.93
2019-02-20T00:20:46.846Z,5.99
2019-02-20T00:21:46.819Z,5.86
2019-02-20T00:22:46.897Z,5.83
2019-02-20T00:23:46.780Z,5.80
2019-02-20T00:24:46.789Z,5.80
2019-02-20T00:25:46.770Z,5.75
2019-02-20T00:26:46.781Z,5.75
2019-02-20T00:27:46.767Z,5.75
2019-02-20T00:28:46.808Z,5.79
2019-02-20T00:29:46.748Z,5.80
2019-02-20T00:30:46.736Z,5.72
2019-02-20T00:31:46.707Z,5.75
2019-02-20T00:32:47.479Z,5.75
2019-02-20T00:33:46.703Z,5.73
2019-02-20T00:34:46.697Z,5.75
2019-02-20T00:35:46.854Z,5.73
2019-02-20T00:36:46.675Z,5.73
2019-02-20T00:37:46.661Z,5.83
2019-02-20T00:38:46.663Z,5.80
2019-02-20T00:39:46.640Z,5.87
2019-02-20T00:40:46.687Z,5.83
2019-02-20T00:41:46.764Z,5.82
2019-02-20T00:42:46.690Z,5.83
2019-02-20T00:43:46.586Z,5.87
2019-02-20T00:44:46.587Z,5.75
2019-02-20T00:45:46.585Z,5.83
2019-02-20T00:46:46.631Z,5.76
2019-02-20T00:47:46.538Z,5.87
2019-02-20T00:48:46.531Z,5.75
2019-02-20T00:49:46.506Z,5.80
2019-02-20T00:50:46.496Z,5.73
2019-02-20T00:51:46.605Z,5.72
2019-02-20T00:52:49.818Z,5.71
2019-02-20T00:53:46.463Z,5.69
2019-02-20T00:54:46.452Z,5.73
2019-02-20T00:55:46.467Z,5.71
2019-02-20T00:56:46.455Z,5.72
2019-02-20T00:57:46.682Z,5.72
2019-02-20T00:58:46.420Z,5.73
2019-02-20T00:59:46.430Z,5.73
2019-02-20T01:00:46.414Z,5.66
2019-02-20T01:01:46.408Z,5.68
2019-02-20T01:02:46.399Z,5.68
2019-02-20T01:03:46.489Z,5.71
2019-02-20T01:04:46.360Z,5.68
2019-02-20T01:05:46.339Z,5.69
2019-02-20T01:06:46.301Z,5.71
2019-02-20T01:07:46.381Z,5.72
2019-02-20T01:08:46.320Z,5.75
2019-02-20T01:09:46.380Z,5.68
2019-02-20T01:10:46.285Z,5.66
2019-02-20T01:11:46.291Z,5.68
2019-02-20T01:12:46.284Z,5.73
2019-02-20T01:13:46.238Z,5.80
2019-02-20T01:14:46.231Z,5.80
2019-02-20T01:15:46.343Z,5.80
2019-02-20T01:16:46.203Z,5.80
2019-02-20T01:17:46.182Z,5.73
2019-02-20T01:18:46.356Z,5.86
2019-02-20T01:19:46.186Z,5.76
2019-02-20T01:20:46.184Z,5.84
2019-02-20T01:21:46.143Z,5.86
2019-02-20T01:22:46.145Z,5.86
2019-02-20T01:23:46.147Z,5.90
2019-02-20T01:24:46.198Z,5.80
2019-02-20T01:25:46.193Z,5.93
2019-02-20T01:26:46.123Z,5.89
2019-02-20T01:27:46.132Z,5.79
2019-02-20T01:28:46.111Z,5.86
2019-02-20T01:29:46.052Z,5.76
2019-02-20T01:30:46.063Z,5.72
2019-02-20T01:31:46.196Z,5.68
2019-02-20T01:32:46.010Z,5.57
2019-02-20T01:33:46.019Z,5.53
2019-02-20T01:34:45.992Z,5.64
2019-02-20T01:35:46.006Z,5.66
2019-02-20T01:36:46.006Z,5.62
2019-02-20T01:37:45.945Z,5.65
2019-02-20T01:38:45.977Z,5.69
2019-02-20T01:39:45.941Z,5.73
2019-02-20T01:40:46.022Z,5.66
2019-02-20T01:41:45.993Z,5.68
2019-02-20T01:42:45.933Z,5.72
2019-02-20T01:43:45.903Z,5.71
2019-02-20T01:44:45.879Z,5.75
2019-02-20T01:45:45.886Z,5.72
2019-02-20T01:46:45.938Z,5.75
2019-02-20T01:47:45.878Z,5.75
2019-02-20T01:48:45.866Z,5.75
2019-02-20T01:49:45.838Z,5.83
2019-02-20T01:50:45.849Z,5.79
2019-02-20T01:51:45.798Z,5.65
2019-02-20T01:52:45.917Z,5.76
2019-02-20T01:53:45.784Z,5.69
2019-02-20T01:54:45.815Z,5.72
2019-02-20T01:55:45.819Z,5.56
2019-02-20T01:56:45.853Z,5.65
2019-02-20T01:57:45.758Z,5.65
2019-02-20T01:58:45.812Z,5.59
2019-02-20T01:59:45.733Z,5.61
2019-02-20T02:00:45.723Z,5.64
2019-02-20T02:01:45.737Z,5.56
2019-02-20T02:02:45.794Z,5.61
2019-02-20T02:03:45.676Z,5.65
2019-02-20T02:04:45.704Z,5.62
2019-02-20T02:05:45.662Z,5.59
2019-02-20T02:06:45.625Z,5.69
2019-02-20T02:07:45.713Z,5.65
2019-02-20T02:08:45.654Z,5.65
2019-02-20T02:09:45.629Z,5.69
2019-02-20T02:10:45.632Z,5.62
2019-02-20T02:11:45.587Z,5.62
2019-02-20T02:12:45.591Z,5.71
2019-02-20T02:13:45.582Z,5.56
2019-02-20T02:14:45.621Z,5.61
2019-02-20T02:15:45.556Z,5.61
2019-02-20T02:16:45.538Z,5.59
2019-02-20T02:17:45.586Z,5.65
2019-02-20T02:18:46.494Z,5.53
2019-02-20T02:19:45.482Z,5.51
2019-02-20T02:20:45.510Z,5.46
2019-02-20T02:21:45.496Z,5.46
2019-02-20T02:22:45.495Z,5.53
2019-02-20T02:23:47.598Z,5.50
2019-02-20T02:24:45.542Z,5.44
2019-02-20T02:25:45.467Z,5.48
2019-02-20T02:26:45.444Z,5.47
2019-02-20T02:27:45.391Z,5.50
2019-02-20T02:28:45.426Z,5.47
2019-02-20T02:29:45.448Z,5.50
2019-02-20T02:30:45.362Z,5.51
2019-02-20T02:31:45.468Z,5.47
2019-02-20T02:32:45.384Z,5.46
2019-02-20T02:33:45.362Z,5.39
2019-02-20T02:34:45.376Z,5.39
2019-02-20T02:35:45.399Z,5.39
2019-02-20T02:36:45.494Z,5.38
2019-02-20T02:37:45.346Z,5.35
2019-02-20T02:38:45.409Z,5.50
2019-02-20T02:39:45.279Z,5.35
2019-02-20T02:40:45.288Z,5.36
2019-02-20T02:41:45.265Z,5.44
2019-02-20T02:42:46.002Z,5.36
2019-02-20T02:43:45.240Z,5.51
2019-02-20T02:44:45.231Z,5.36
2019-02-20T02:45:45.289Z,5.32
2019-02-20T02:46:45.234Z,5.32
2019-02-20T02:47:45.213Z,5.33
2019-02-20T02:48:45.155Z,5.36
2019-02-20T02:49:45.190Z,5.29
2019-02-20T02:50:45.262Z,5.44
2019-02-20T02:51:45.198Z,5.36
2019-02-20T02:52:45.161Z,5.35
2019-02-20T02:53:45.101Z,5.36
2019-02-20T02:54:45.216Z,5.36
2019-02-20T02:55:45.221Z,5.33
2019-02-20T02:56:45.075Z,5.33
2019-02-20T02:57:45.080Z,5.29
2019-02-20T02:58:45.088Z,5.44
2019-02-20T02:59:45.068Z,5.33
2019-02-20T03:00:45.099Z,5.33
2019-02-20T03:01:45.030Z,5.47
2019-02-20T03:02:45.041Z,5.30
2019-02-20T03:03:45.602Z,5.43
2019-02-20T03:04:45.020Z,5.33
2019-02-20T03:05:44.986Z,5.32
2019-02-20T03:06:45.014Z,5.46
2019-02-20T03:07:45.184Z,5.47
2019-02-20T03:08:44.943Z,5.47
2019-02-20T03:09:44.937Z,5.43
2019-02-20T03:10:45.142Z,5.44
2019-02-20T03:11:44.924Z,5.47
2019-02-20T03:12:44.918Z,5.43
2019-02-20T03:13:45.183Z,5.46
2019-02-20T03:14:44.913Z,5.43
2019-02-20T03:15:44.878Z,5.47
2019-02-20T03:16:44.843Z,5.46
2019-02-20T03:17:44.864Z,5.50
2019-02-20T03:18:45.507Z,5.53
2019-02-20T03:19:44.899Z,5.48
2019-02-20T03:20:44.819Z,5.48
2019-02-20T03:21:44.870Z,5.46
2019-02-20T03:22:44.797Z,5.54
2019-02-20T03:23:44.886Z,5.46
2019-02-20T03:24:44.869Z,5.47
2019-02-20T03:25:44.768Z,5.46
2019-02-20T03:26:44.731Z,5.47
2019-02-20T03:27:44.761Z,5.50
2019-02-20T03:28:44.732Z,5.48
2019-02-20T03:29:44.820Z,5.48
2019-02-20T03:30:44.853Z,5.47
2019-02-20T03:31:44.738Z,5.47
2019-02-20T03:32:44.700Z,5.53
2019-02-20T03:33:44.660Z,5.53
2019-02-20T03:34:44.822Z,5.62
2019-02-20T03:35:44.769Z,5.61
2019-02-20T03:36:44.868Z,5.61
2019-02-20T03:37:44.667Z,5.65
2019-02-20T03:38:44.636Z,5.68
2019-02-20T03:39:44.626Z,5.75
2019-02-20T03:40:44.606Z,5.72
2019-02-20T03:41:44.900Z,5.76
2019-02-20T03:42:44.715Z,5.71
2019-02-20T03:43:45.513Z,5.71
2019-02-20T03:44:44.547Z,5.71
2019-02-20T03:45:44.669Z,5.73
2019-02-20T03:46:44.704Z,5.72
2019-02-20T03:47:44.527Z,5.69
2019-02-20T03:48:44.567Z,5.75
2019-02-20T03:49:44.670Z,5.72
2019-02-20T03:50:45.505Z,5.79
2019-02-20T03:51:44.588Z,5.76
2019-02-20T03:52:44.521Z,5.75
2019-02-20T03:53:51.714Z,5.79
2019-02-20T03:54:45.454Z,5.75
2019-02-20T03:55:44.458Z,5.80
2019-02-20T03:56:44.510Z,5.86
2019-02-20T03:57:44.483Z,5.84
2019-02-20T03:58:44.501Z,5.93
2019-02-20T03:59:44.385Z,5.91
2019-02-20T04:00:44.427Z,5.93
2019-02-20T04:01:44.522Z,5.93
2019-02-20T04:02:44.536Z,5.93
2019-02-20T04:03:44.414Z,5.87
2019-02-20T04:04:44.368Z,5.94
2019-02-20T04:05:44.386Z,5.87
2019-02-20T04:06:44.332Z,5.87
2019-02-20T04:07:44.347Z,5.76
2019-02-20T04:08:44.383Z,5.83
2019-02-20T04:09:44.289Z,5.83
2019-02-20T04:10:44.376Z,5.72
2019-02-20T04:11:44.321Z,5.71
2019-02-20T04:12:44.378Z,5.66
2019-02-20T04:13:44.260Z,5.65
2019-02-20T04:14:44.393Z,5.66
2019-02-20T04:15:44.495Z,5.64
2019-02-20T04:16:44.218Z,5.59
2019-02-20T04:17:44.358Z,5.64
2019-02-20T04:18:44.320Z,5.56
2019-02-20T04:19:44.217Z,5.65
2019-02-20T04:20:45.096Z,5.65
2019-02-20T04:21:44.173Z,5.68
2019-02-20T04:22:44.238Z,5.66
2019-02-20T04:23:44.149Z,5.62
2019-02-20T04:24:44.212Z,5.64
2019-02-20T04:25:44.311Z,5.56
2019-02-20T04:26:44.144Z,5.62
2019-02-20T04:27:51.620Z,5.59
2019-02-20T04:28:44.096Z,5.59
2019-02-20T04:29:44.163Z,5.62
2019-02-20T04:30:44.055Z,5.62
2019-02-20T04:31:44.096Z,5.62
2019-02-20T04:32:44.060Z,5.69
2019-02-20T04:33:44.040Z,5.62
2019-02-20T04:34:44.024Z,5.65
2019-02-20T04:35:44.151Z,5.71
2019-02-20T04:36:44.056Z,5.68
2019-02-20T04:37:43.996Z,5.71
2019-02-20T04:38:43.994Z,5.71
2019-02-20T04:39:43.997Z,5.64
2019-02-20T04:40:43.942Z,5.65
2019-02-20T04:41:44.013Z,5.71
2019-02-20T04:42:43.929Z,5.68
2019-02-20T04:43:43.963Z,5.59
2019-02-20T04:44:43.897Z,5.71
2019-02-20T04:45:43.913Z,5.68
2019-02-20T04:46:43.997Z,5.76
2019-02-20T04:47:43.863Z,5.66
2019-02-20T04:48:43.871Z,5.73
2019-02-20T04:49:43.954Z,5.79
2019-02-20T04:50:43.813Z,5.79
2019-02-20T04:51:43.829Z,5.80
2019-02-20T04:52:43.865Z,5.76
2019-02-20T04:53:43.764Z,5.86
2019-02-20T04:54:44.553Z,5.82
2019-02-20T04:55:43.810Z,5.69
2019-02-20T04:56:43.749Z,5.73
2019-02-20T04:57:43.824Z,5.79
2019-02-20T04:58:43.807Z,5.71
2019-02-20T04:59:43.707Z,5.82
2019-02-20T05:00:43.763Z,5.69
2019-02-20T05:01:43.662Z,5.66
2019-02-20T05:02:43.693Z,5.76
2019-02-20T05:03:43.690Z,5.72
2019-02-20T05:04:43.717Z,5.72
2019-02-20T05:05:43.691Z,5.61
2019-02-20T05:06:43.653Z,5.69
2019-02-20T05:07:43.625Z,5.73
2019-02-20T05:08:43.716Z,5.71
2019-02-20T05:09:43.638Z,5.71
2019-02-20T05:10:43.627Z,5.64
2019-02-20T05:11:43.662Z,5.59
2019-02-20T05:12:43.608Z,5.65
2019-02-20T05:13:43.596Z,5.61
2019-02-20T05:14:43.732Z,5.53
2019-02-20T05:15:43.582Z,5.64
2019-02-20T05:16:43.633Z,5.56
2019-02-20T05:17:43.580Z,5.64
2019-02-20T05:18:43.511Z,5.57
2019-02-20T05:19:43.597Z,5.61
2019-02-20T05:20:43.489Z,5.57
2019-02-20T05:21:43.477Z,5.57
2019-02-20T05:22:43.488Z,5.56
2019-02-20T05:23:43.459Z,5.66
2019-02-20T05:24:43.530Z,5.54
2019-02-20T05:25:43.462Z,5.61
2019-02-20T05:26:43.462Z,5.61
2019-02-20T05:27:43.468Z,5.61
2019-02-20T05:28:43.410Z,5.62
2019-02-20T05:29:43.383Z,5.54
2019-02-20T05:30:43.560Z,5.46
2019-02-20T05:31:44.055Z,5.53
2019-02-20T05:32:43.388Z,5.48
2019-02-20T05:33:43.342Z,5.46
2019-02-20T05:34:43.371Z,5.46
2019-02-20T05:35:43.336Z,5.54
2019-02-20T05:36:43.330Z,5.44
2019-02-20T05:37:43.365Z,5.41
2019-02-20T05:38:43.286Z,5.54
2019-02-20T05:39:43.291Z,5.47
2019-02-20T05:40:43.254Z,5.47
2019-02-20T05:41:43.454Z,5.39
2019-02-20T05:42:43.234Z,5.39
2019-02-20T05:43:43.242Z,5.46
2019-02-20T05:44:43.241Z,5.36
2019-02-20T05:45:43.205Z,5.33
2019-02-20T05:46:43.224Z,5.35
2019-02-20T05:47:43.312Z,5.35
2019-02-20T05:48:43.266Z,5.35
2019-02-20T05:49:43.242Z,5.43
2019-02-20T05:50:43.187Z,5.30
2019-02-20T05:51:43.167Z,5.36
2019-02-20T05:52:43.205Z,5.36
2019-02-20T05:53:43.130Z,5.35
2019-02-20T05:54:43.147Z,5.35
2019-02-20T05:55:43.109Z,5.35
2019-02-20T05:56:43.121Z,5.33
2019-02-20T05:57:43.238Z,5.32
2019-02-20T05:58:43.070Z,5.43
2019-02-20T05:59:43.172Z,5.39
2019-02-20T06:00:43.053Z,5.43
2019-02-20T06:01:43.043Z,5.33
2019-02-20T06:02:43.116Z,5.46
2019-02-20T06:03:43.368Z,5.43
2019-02-20T06:04:43.005Z,5.41
2019-02-20T06:05:42.997Z,5.47
2019-02-20T06:06:42.955Z,5.51
2019-02-20T06:07:42.980Z,5.46
2019-02-20T06:08:42.947Z,5.47
2019-02-20T06:09:42.961Z,5.56
2019-02-20T06:10:42.988Z,5.57
2019-02-20T06:11:42.916Z,5.62
2019-02-20T06:12:42.889Z,5.57
2019-02-20T06:13:42.897Z,5.62
2019-02-20T06:14:42.932Z,5.69
2019-02-20T06:15:43.565Z,5.64
2019-02-20T06:16:42.881Z,5.62
2019-02-20T06:17:42.887Z,5.64
2019-02-20T06:18:42.861Z,5.56
2019-02-20T06:19:42.853Z,5.64
2019-02-20T06:20:43.134Z,5.56
2019-02-20T06:21:42.820Z,5.62
2019-02-20T06:22:42.817Z,5.62
2019-02-20T06:23:42.998Z,5.65
2019-02-20T06:24:44.334Z,5.64
2019-02-20T06:25:42.799Z,5.59
2019-02-20T06:26:42.888Z,5.59
2019-02-20T06:27:43.573Z,5.62
2019-02-20T06:28:42.791Z,5.59
2019-02-20T06:29:42.772Z,5.59
2019-02-20T06:30:43.657Z,5.54
2019-02-20T06:31:42.706Z,5.61
2019-02-20T06:32:42.683Z,5.61
2019-02-20T06:33:42.721Z,5.62
2019-02-20T06:34:42.743Z,5.62
2019-02-20T06:35:42.646Z,5.51
2019-02-20T06:36:42.666Z,5.59
2019-02-20T06:37:42.656Z,5.59
2019-02-20T06:38:42.617Z,5.48
2019-02-20T06:39:42.619Z,5.51
2019-02-20T06:40:42.641Z,5.51
2019-02-20T06:41:42.590Z,5.62
2019-02-20T06:42:42.685Z,5.64
2019-02-20T06:43:42.567Z,5.61
2019-02-20T06:44:42.543Z,5.61
2019-02-20T06:45:42.604Z,5.59
2019-02-20T06:46:42.542Z,5.57
2019-02-20T06:47:42.506Z,5.61
2019-02-20T06:48:42.504Z,5.64
2019-02-20T06:49:42.482Z,5.65
2019-02-20T06:50:42.548Z,5.59
2019-02-20T06:51:42.532Z,5.61
2019-02-20T06:52:42.465Z,5.59
2019-02-20T06:53:42.424Z,5.57
2019-02-20T06:54:42.478Z,5.61
2019-02-20T06:55:42.434Z,5.56
2019-02-20T06:56:42.422Z,5.53
2019-02-20T06:57:42.462Z,5.61
2019-02-20T06:58:43.073Z,5.64
2019-02-20T06:59:42.384Z,5.56
2019-02-20T07:00:42.379Z,5.62
2019-02-20T07:01:42.345Z,5.56
2019-02-20T07:02:42.408Z,5.59
2019-02-20T07:03:42.358Z,5.61
2019-02-20T07:04:42.348Z,5.54
2019-02-20T07:05:42.303Z,5.59
2019-02-20T07:06:42.314Z,5.62
2019-02-20T07:07:42.364Z,5.53
2019-02-20T07:08:42.361Z,5.54
2019-02-20T07:09:42.341Z,5.61
2019-02-20T07:10:42.256Z,5.61
2019-02-20T07:11:42.359Z,5.61
2019-02-20T07:12:42.223Z,5.64
2019-02-20T07:13:42.298Z,5.59
2019-02-20T07:14:42.203Z,5.62
2019-02-20T07:15:42.200Z,5.59
2019-02-20T07:16:42.236Z,5.61
2019-02-20T07:17:42.221Z,5.64
2019-02-20T07:18:42.190Z,5.56
2019-02-20T07:19:42.186Z,5.66
2019-02-20T07:20:42.160Z,5.61
2019-02-20T07:21:42.163Z,5.61
2019-02-20T07:22:42.271Z,5.54
2019-02-20T07:23:42.107Z,5.46
2019-02-20T07:24:42.117Z,5.50
2019-02-20T07:25:42.295Z,5.53
2019-02-20T07:26:42.086Z,5.48
2019-02-20T07:27:42.075Z,5.54
2019-02-20T07:28:42.166Z,5.47
2019-02-20T07:29:42.056Z,5.54
2019-02-20T07:30:42.030Z,5.48
2019-02-20T07:31:42.150Z,5.51
2019-02-20T07:32:42.049Z,5.53
2019-02-20T07:33:41.993Z,5.48
2019-02-20T07:34:42.011Z,5.54
2019-02-20T07:35:42.102Z,5.51
2019-02-20T07:36:41.975Z,5.66
2019-02-20T07:37:41.939Z,5.62
2019-02-20T07:38:41.953Z,5.62
2019-02-20T07:39:41.938Z,5.61
2019-02-20T07:40:41.956Z,5.65
2019-02-20T07:41:42.019Z,5.62
2019-02-20T07:42:41.928Z,5.71
2019-02-20T07:43:41.931Z,5.71
2019-02-20T07:44:41.966Z,5.66
2019-02-20T07:45:41.914Z,5.75
2019-02-20T07:46:41.851Z,5.71
2019-02-20T07:47:41.865Z,5.79
2019-02-20T07:48:41.907Z,5.75
2019-02-20T07:49:42.069Z,5.76
2019-02-20T07:50:41.819Z,5.84
2019-02-20T07:51:41.819Z,5.82
2019-02-20T07:52:41.795Z,5.83
2019-02-20T07:53:41.803Z,5.93
2019-02-20T07:54:41.780Z,5.91
2019-02-20T07:55:41.781Z,5.83
2019-02-20T07:56:41.761Z,5.89
2019-02-20T07:57:41.742Z,5.93
2019-02-20T07:58:41.729Z,5.99
2019-02-20T07:59:41.742Z,5.87
2019-02-20T08:00:41.840Z,6.05
2019-02-20T08:01:41.701Z,6.07
2019-02-20T08:02:41.683Z,6.08
2019-02-20T08:03:41.662Z,6.07
2019-02-20T08:04:41.677Z,6.11
2019-02-20T08:05:41.836Z,6.11
2019-02-20T08:06:41.678Z,6.16
2019-02-20T08:07:41.620Z,6.20
2019-02-20T08:08:41.768Z,6.17
2019-02-20T08:09:41.621Z,6.24
2019-02-20T08:10:41.588Z,6.24
2019-02-20T08:11:41.571Z,6.33
2019-02-20T08:12:41.660Z,6.24
2019-02-20T08:13:41.575Z,6.30
2019-02-20T08:14:41.541Z,6.36
2019-02-20T08:15:41.547Z,6.51
2019-02-20T08:16:41.524Z,6.45
2019-02-20T08:17:41.578Z,6.52
2019-02-20T08:18:41.507Z,6.39
2019-02-20T08:19:41.508Z,6.56
2019-02-20T08:20:41.478Z,6.56
2019-02-20T08:21:41.517Z,6.54
2019-02-20T08:22:41.554Z,6.63
2019-02-20T08:23:41.442Z,6.63
2019-02-20T08:24:42.085Z,6.69
2019-02-20T08:25:41.452Z,6.74
2019-02-20T08:26:41.453Z,6.77
2019-02-20T08:27:41.432Z,6.81
2019-02-20T08:28:41.470Z,6.79
2019-02-20T08:29:41.461Z,6.84
2019-02-20T08:30:41.394Z,6.74
2019-02-20T08:31:41.361Z,6.87
2019-02-20T08:32:41.376Z,6.88
2019-02-20T08:33:41.343Z,6.92
2019-02-20T08:34:41.334Z,6.93
2019-02-20T08:35:41.382Z,6.97
2019-02-20T08:36:41.327Z,6.97
2019-02-20T08:37:41.347Z,6.97
2019-02-20T08:38:41.270Z,6.95
2019-02-20T08:39:41.257Z,7.06
2019-02-20T08:40:41.267Z,7.06
2019-02-20T08:41:41.336Z,7.15
2019-02-20T08:42:41.233Z,7.24
2019-02-20T08:43:41.295Z,7.23
2019-02-20T08:44:41.230Z,7.28
2019-02-20T08:45:41.223Z,7.18
2019-02-20T08:46:41.214Z,7.35
2019-02-20T08:47:41.155Z,7.24
2019-02-20T08:48:42.086Z,7.35
2019-02-20T08:49:41.179Z,7.24
2019-02-20T08:50:41.169Z,7.35
2019-02-20T08:51:41.200Z,7.35
2019-02-20T08:52:41.182Z,7.36
2019-02-20T08:53:41.148Z,7.32
2019-02-20T08:54:41.198Z,7.48
2019-02-20T08:55:41.098Z,7.42
2019-02-20T08:56:41.087Z,7.50
2019-02-20T08:57:41.146Z,7.50
2019-02-20T08:58:41.046Z,7.56
2019-02-20T08:59:41.133Z,7.48
2019-02-20T09:00:41.074Z,7.48
2019-02-20T09:01:41.009Z,7.57
2019-02-20T09:02:41.022Z,7.54
2019-02-20T09:03:41.010Z,7.53
2019-02-20T09:04:41.079Z,7.61
2019-02-20T09:05:41.032Z,7.63
2019-02-20T09:06:40.990Z,7.60
2019-02-20T09:07:40.942Z,7.63
2019-02-20T09:08:40.948Z,7.63
2019-02-20T09:09:40.947Z,7.77
2019-02-20T09:10:40.979Z,7.72
2019-02-20T09:11:40.979Z,7.70
2019-02-20T09:12:40.897Z,7.70
2019-02-20T09:13:40.871Z,7.79
2019-02-20T09:14:41.588Z,7.79
2019-02-20T09:15:40.951Z,7.77
2019-02-20T09:16:40.847Z,7.85
2019-02-20T09:17:40.856Z,7.95
2019-02-20T09:18:40.867Z,7.97
2019-02-20T09:19:40.795Z,7.94
2019-02-20T09:20:40.884Z,7.95
2019-02-20T09:21:40.874Z,7.93
2019-02-20T09:22:40.833Z,7.97
2019-02-20T09:23:41.946Z,7.98
2019-02-20T09:24:40.865Z,7.93
2019-02-20T09:25:41.779Z,7.93
2019-02-20T09:26:40.895Z,7.94
2019-02-20T09:27:40.741Z,7.97
2019-02-20T09:28:40.897Z,8.06
2019-02-20T09:29:40.704Z,8.03
2019-02-20T09:30:40.711Z,8.12
2019-02-20T09:31:40.807Z,8.12
2019-02-20T09:32:40.747Z,8.13
2019-02-20T09:33:40.686Z,8.20
2019-02-20T09:34:40.648Z,8.20
2019-02-20T09:35:40.656Z,8.24
2019-02-20T09:36:40.633Z,8.28
2019-02-20T09:37:40.615Z,8.31
2019-02-20T09:38:40.663Z,8.38
2019-02-20T09:39:40.597Z,8.45
2019-02-20T09:40:40.584Z,8.44
2019-02-20T09:41:40.633Z,8.53
2019-02-20T09:42:40.578Z,8.48
2019-02-20T09:43:40.673Z,8.53
2019-02-20T09:44:40.532Z,8.46
2019-02-20T09:45:42.856Z,8.49
2019-02-20T09:46:40.558Z,8.60
2019-02-20T09:47:40.607Z,8.61
2019-02-20T09:48:40.593Z,8.67
2019-02-20T09:49:40.479Z,8.70
2019-02-20T09:50:40.486Z,8.69
2019-02-20T09:51:40.499Z,8.69
2019-02-20T09:52:40.451Z,8.71
2019-02-20T09:53:40.465Z,8.71
2019-02-20T09:54:40.510Z,8.74
2019-02-20T09:55:40.431Z,8.82
2019-02-20T09:56:40.406Z,8.81
2019-02-20T09:57:40.404Z,8.89
2019-02-20T09:58:40.372Z,8.89
2019-02-20T09:59:40.436Z,8.88
2019-02-20T10:00:40.349Z,9.00
2019-02-20T10:01:40.387Z,8.94
2019-02-20T10:02:40.353Z,8.91
2019-02-20T10:03:40.472Z,8.99
2019-02-20T10:04:40.325Z,8.95
2019-02-20T10:05:40.385Z,9.08
2019-02-20T10:06:40.307Z,9.06
2019-02-20T10:07:40.324Z,9.10
2019-02-20T10:08:40.390Z,9.21
2019-02-20T10:09:40.256Z,9.10
2019-02-20T10:10:40.307Z,9.25
2019-02-20T10:11:40.371Z,9.19
2019-02-20T10:12:40.231Z,9.19
2019-02-20T10:13:40.210Z,9.29
2019-02-20T10:14:40.425Z,9.29
2019-02-20T10:15:41.103Z,9.36
2019-02-20T10:16:40.207Z,9.40
2019-02-20T10:17:40.185Z,9.50
2019-02-20T10:18:40.185Z,9.46
2019-02-20T10:19:40.144Z,9.51
2019-02-20T10:20:40.197Z,9.58
2019-02-20T10:21:40.165Z,9.66
2019-02-20T10:22:40.136Z,9.73
2019-02-20T10:23:40.176Z,9.74
2019-02-20T10:24:40.081Z,9.73
2019-02-20T10:25:40.082Z,9.84
2019-02-20T10:26:40.071Z,9.87
2019-02-20T10:27:40.183Z,9.94
2019-02-20T10:28:40.044Z,9.95
2019-02-20T10:29:40.137Z,9.94
2019-02-20T10:30:40.067Z,9.89
2019-02-20T10:31:40.020Z,9.69
2019-02-20T10:32:40.027Z,9.62
2019-02-20T10:33:40.037Z,9.61
2019-02-20T10:34:40.087Z,9.64
2019-02-20T10:35:40.034Z,9.58
2019-02-20T10:36:39.970Z,9.65
2019-02-20T10:37:39.968Z,9.74
2019-02-20T10:38:39.994Z,9.62
2019-02-20T10:39:39.930Z,9.62
2019-02-20T10:40:39.908Z,9.66
2019-02-20T10:41:39.916Z,9.61
2019-02-20T10:42:39.885Z,9.61
2019-02-20T10:43:39.981Z,9.59
2019-02-20T10:44:39.875Z,9.55
2019-02-20T10:45:39.922Z,9.59
2019-02-20T10:46:39.900Z,9.46
2019-02-20T10:47:39.939Z,9.58
2019-02-20T10:48:39.873Z,9.59
2019-02-20T10:49:39.844Z,9.62
2019-02-20T10:50:39.811Z,9.66
2019-02-20T10:51:39.787Z,9.77
2019-02-20T10:52:39.788Z,9.73
2019-02-20T10:53:39.874Z,9.79
2019-02-20T10:54:39.756Z,9.86
2019-02-20T10:55:39.781Z,9.97
2019-02-20T10:56:39.748Z,9.98
2019-02-20T10:57:39.748Z,10.05
2019-02-20T10:58:39.723Z,10.10
2019-02-20T10:59:39.731Z,10.25
2019-02-20T11:01:48.454Z,10.37
2019-02-20T11:02:48.421Z,10.53
2019-02-20T11:03:48.418Z,10.49
2019-02-20T11:04:50.124Z,10.56
2019-02-20T11:05:48.462Z,10.51
2019-02-20T11:06:48.382Z,10.49
2019-02-20T11:07:48.364Z,10.60
2019-02-20T11:08:48.379Z,10.54
2019-02-20T11:09:48.351Z,10.48
2019-02-20T11:10:48.331Z,10.57
2019-02-20T11:11:48.316Z,10.61
2019-02-20T11:12:50.103Z,10.64
2019-02-20T11:13:48.319Z,10.69
2019-02-20T11:14:48.992Z,10.76
2019-02-20T11:15:48.275Z,10.76
2019-02-20T11:16:48.259Z,10.74
2019-02-20T11:17:48.247Z,10.75
2019-02-20T11:18:48.338Z,10.82
2019-02-20T11:19:48.232Z,10.78
2019-02-20T11:20:48.697Z,10.96
2019-02-20T11:21:48.264Z,10.90
2019-02-20T11:22:48.623Z,11.00
2019-02-20T11:23:48.181Z,11.02
2019-02-20T11:24:48.195Z,11.00
2019-02-20T11:25:48.162Z,10.92
2019-02-20T11:26:54.729Z,10.87
2019-02-20T11:27:49.139Z,10.93
2019-02-20T11:28:48.127Z,10.96
2019-02-20T11:29:48.140Z,10.93
2019-02-20T11:30:48.107Z,10.94
2019-02-20T11:31:48.094Z,10.97
2019-02-20T11:32:48.081Z,10.92
2019-02-20T11:33:48.096Z,10.93
2019-02-20T11:34:48.568Z,10.86
2019-02-20T11:35:48.056Z,10.84
2019-02-20T11:36:49.426Z,10.93
2019-02-20T11:37:48.081Z,10.87
2019-02-20T11:38:48.027Z,10.89
2019-02-20T11:39:48.001Z,10.96
2019-02-20T11:40:47.994Z,10.93
2019-02-20T11:41:47.985Z,10.90
2019-02-20T11:42:47.968Z,10.94
2019-02-20T11:43:47.999Z,10.90
2019-02-20T11:44:47.955Z,10.89
2019-02-20T11:45:47.944Z,10.92
2019-02-20T11:46:47.946Z,10.92
2019-02-20T11:47:47.941Z,10.90
2019-02-20T11:48:47.921Z,11.04
2019-02-20T11:49:47.895Z,11.05
2019-02-20T11:50:48.038Z,11.11
2019-02-20T11:51:47.877Z,11.22
2019-02-20T11:52:47.852Z,11.26
2019-02-20T11:53:47.891Z,11.30
2019-02-20T11:54:47.839Z,11.29
2019-02-20T11:55:47.823Z,11.23
2019-02-20T11:56:47.808Z,11.25
2019-02-20T11:57:47.819Z,11.23
2019-02-20T11:58:47.923Z,11.22
2019-02-20T11:59:47.802Z,11.23
2019-02-20T12:00:47.773Z,11.19
2019-02-20T12:01:47.815Z,11.30
2019-02-20T12:02:47.781Z,11.27
2019-02-20T12:03:47.740Z,11.22
2019-02-20T12:04:47.762Z,11.35
2019-02-20T12:05:47.714Z,11.27
2019-02-20T12:06:47.738Z,11.14
2019-02-20T12:07:47.684Z,11.22
2019-02-20T12:08:47.687Z,11.25
2019-02-20T12:09:47.723Z,11.23
2019-02-20T12:10:47.656Z,11.14
2019-02-20T12:11:47.770Z,11.15
2019-02-20T12:12:47.633Z,11.15
2019-02-20T12:13:47.662Z,11.14
2019-02-20T12:14:47.732Z,11.19
2019-02-20T12:15:47.746Z,11.14
2019-02-20T12:16:47.647Z,11.25
2019-02-20T12:17:47.575Z,11.18
2019-02-20T12:18:47.607Z,11.25
2019-02-20T12:19:47.583Z,11.19
2019-02-20T12:20:47.626Z,11.26
2019-02-20T12:21:47.585Z,11.36
2019-02-20T12:22:47.539Z,11.41
2019-02-20T12:23:47.538Z,11.41
2019-02-20T12:24:47.614Z,11.50
2019-02-20T12:25:47.505Z,11.52
2019-02-20T12:26:47.525Z,11.51
2019-02-20T12:27:47.471Z,11.48
2019-02-20T12:28:47.519Z,11.54
2019-02-20T12:29:47.502Z,11.63
2019-02-20T12:30:47.661Z,11.72
2019-02-20T12:31:52.486Z,11.80
2019-02-20T12:32:48.412Z,11.88
2019-02-20T12:33:47.501Z,11.91
2019-02-20T12:34:47.433Z,11.97
2019-02-20T12:35:47.445Z,12.02
2019-02-20T12:36:47.494Z,11.97
2019-02-20T12:37:47.459Z,12.09
2019-02-20T12:38:47.395Z,12.09
2019-02-20T12:39:47.382Z,12.09
2019-02-20T12:40:47.374Z,12.10
2019-02-20T12:41:47.396Z,12.27
2019-02-20T12:42:47.410Z,12.39
2019-02-20T12:43:47.344Z,12.50
2019-02-20T12:44:47.350Z,12.75
2019-02-20T12:45:49.016Z,13.05
2019-02-20T12:46:47.820Z,13.23
2019-02-20T12:47:47.304Z,13.44
2019-02-20T12:48:47.381Z,13.57
2019-02-20T12:49:47.271Z,13.72
2019-02-20T12:50:47.261Z,13.93
2019-02-20T12:51:47.243Z,13.79
2019-02-20T12:52:47.298Z,13.81
2019-02-20T12:54:03.780Z,13.42
2019-02-20T12:54:47.190Z,13.18
2019-02-20T12:55:47.347Z,13.03
2019-02-20T12:56:47.222Z,12.93
2019-02-20T12:57:47.215Z,12.76
2019-02-20T12:58:47.363Z,12.67
2019-02-20T12:59:47.163Z,12.55
2019-02-20T13:00:47.326Z,12.54
2019-02-20T13:01:47.125Z,12.54
2019-02-20T13:02:47.135Z,12.53
2019-02-20T13:03:47.155Z,12.68
2019-02-20T13:04:47.082Z,12.73
2019-02-20T13:05:47.138Z,12.82
2019-02-20T13:06:47.049Z,12.90
2019-02-20T13:07:47.158Z,12.87
2019-02-20T13:08:47.023Z,12.94
2019-02-20T13:09:50.080Z,13.04
2019-02-20T13:10:47.024Z,12.82
2019-02-20T13:11:47.011Z,12.76
2019-02-20T13:12:47.114Z,12.65
2019-02-20T13:13:46.983Z,12.65
2019-02-20T13:14:46.987Z,12.54